Time;durP1;ratioP1;P1;durP2;ratioP2;P2;SDS_P1;SDS_P2;PMS_P1;PMS_P2;Temp;Humidity;BMP_temperature;BMP_pressure;BME280_temperature;BME280_humidity;BME280_pressure;Samples;Min_cycle;Max_cycle;Signal;HPM_P1;HPM_P2
2022/04/26 03:38:03;;;;;;;0.90;0.90;;;19.70;47.30;;;;;;4922113;28;45452;-69
2022/04/26 03:40:28;;;;;;;1.05;0.95;;;19.70;47.30;;;;;;4932970;28;45441;-69
2022/04/26 03:42:54;;;;;;;0.95;0.90;;;19.70;47.30;;;;;;4914385;28;47833;-67
2022/04/26 03:45:20;;;;;;;0.88;0.80;;;19.70;47.30;;;;;;4949601;28;44634;-68
2022/04/26 03:47:46;;;;;;;0.77;0.75;;;19.70;47.30;;;;;;4911374;28;45345;-68
2022/04/26 03:50:12;;;;;;;0.73;0.73;;;19.70;47.30;;;;;;4932759;28;45050;-67
2022/04/26 03:52:41;;;;;;;1.10;1.00;;;19.70;47.30;;;;;;4931507;28;45207;-68
2022/04/26 03:55:07;;;;;;;0.80;0.77;;;19.60;47.30;;;;;;4917062;28;45517;-69
2022/04/26 03:57:32;;;;;;;1.10;1.00;;;19.60;47.30;;;;;;4932060;28;45123;-68
2022/04/26 03:59:58;;;;;;;0.98;0.90;;;19.60;47.30;;;;;;4952958;28;45591;-70
2022/04/26 04:02:24;;;;;;;1.10;0.75;;;19.60;47.30;;;;;;4947457;28;45497;-67
2022/04/26 04:04:49;;;;;;;0.85;0.75;;;19.60;47.30;;;;;;4894690;28;45268;-68
2022/04/26 04:07:15;;;;;;;0.80;0.80;;;19.60;47.40;;;;;;4948850;28;45597;-70
2022/04/26 04:09:41;;;;;;;1.00;0.90;;;19.60;47.40;;;;;;4896826;28;45237;-69
2022/04/26 04:12:07;;;;;;;0.88;0.88;;;19.60;47.40;;;;;;4932037;28;45800;-70
2022/04/26 04:14:33;;;;;;;0.70;0.70;;;19.60;47.40;;;;;;4928589;28;45280;-70
2022/04/26 04:16:58;;;;;;;0.90;0.88;;;19.60;47.40;;;;;;4900577;28;45015;-70
2022/04/26 04:19:25;;;;;;;1.00;0.90;;;19.60;47.40;;;;;;4915184;28;45571;-70
2022/04/26 04:21:51;;;;;;;1.08;0.98;;;19.60;47.40;;;;;;4927985;28;45369;-69
2022/04/26 04:24:18;;;;;;;0.80;0.80;;;19.60;47.50;;;;;;4899354;28;45594;-70
2022/04/26 04:26:43;;;;;;;0.98;0.90;;;19.60;47.40;;;;;;4912786;28;45232;-70
2022/04/26 04:29:09;;;;;;;0.88;0.88;;;19.60;47.40;;;;;;4897908;28;45279;-70
2022/04/26 04:31:35;;;;;;;0.80;0.80;;;19.50;47.40;;;;;;4898412;28;46282;-70
2022/04/26 04:34:01;;;;;;;0.75;0.75;;;19.60;47.50;;;;;;4932494;28;45076;-69
2022/04/26 04:36:27;;;;;;;0.95;0.88;;;19.50;48.00;;;;;;4906620;28;45632;-70
2022/04/26 04:38:54;;;;;;;1.20;1.10;;;19.50;47.40;;;;;;4909379;28;45524;-70
2022/04/26 04:41:19;;;;;;;1.35;1.20;;;19.50;47.40;;;;;;4914954;28;46557;-68
2022/04/26 04:43:45;;;;;;;1.13;1.02;;;19.50;47.40;;;;;;4931753;28;44901;-70
2022/04/26 04:46:11;;;;;;;1.00;0.93;;;19.50;47.50;;;;;;4951562;28;45490;-70
2022/04/26 04:48:36;;;;;;;1.00;0.90;;;19.50;47.50;;;;;;4932192;28;45451;-69
2022/04/26 04:51:02;;;;;;;1.13;1.00;;;19.50;47.50;;;;;;4946215;28;46063;-69
2022/04/26 04:53:28;;;;;;;1.10;1.00;;;19.50;47.40;;;;;;4923162;28;46523;-67
2022/04/26 04:55:53;;;;;;;1.10;0.88;;;19.50;47.50;;;;;;4943320;28;45085;-71
2022/04/26 04:58:19;;;;;;;0.90;0.90;;;19.50;47.50;;;;;;4897738;28;45299;-71
2022/04/26 05:00:45;;;;;;;0.90;0.90;;;19.50;47.50;;;;;;4897413;28;45572;-70
2022/04/26 05:03:11;;;;;;;0.82;0.82;;;19.50;47.50;;;;;;4899054;28;45209;-70
2022/04/26 05:05:37;;;;;;;1.38;1.10;;;19.50;47.50;;;;;;4943814;28;44949;-70
2022/04/26 05:08:02;;;;;;;1.10;1.00;;;19.50;47.50;;;;;;4928690;28;45541;-71
2022/04/26 05:10:32;;;;;;;1.05;1.00;;;19.40;47.50;;;;;;4928367;28;45369;-71
2022/04/26 05:12:58;;;;;;;0.75;0.75;;;19.40;47.50;;;;;;4897985;28;45194;-71
2022/04/26 05:15:25;;;;;;;0.85;0.82;;;19.40;47.50;;;;;;4911618;28;45393;-70
2022/04/26 05:17:51;;;;;;;1.05;0.95;;;19.40;47.50;;;;;;4934633;28;45301;-70
2022/04/26 05:20:17;;;;;;;1.30;0.93;;;19.40;47.50;;;;;;4929616;28;45532;-71
2022/04/26 05:25:27;;;;;;;1.35;1.02;;;19.40;47.50;;;;;;4948627;28;45239;-69
2022/04/26 05:27:53;;;;;;;1.05;1.00;;;19.40;47.50;;;;;;4930410;28;45614;-71
2022/04/26 05:30:18;;;;;;;0.93;0.82;;;19.40;47.50;;;;;;4926631;28;46847;-70
2022/04/26 05:32:44;;;;;;;1.02;1.00;;;19.40;47.50;;;;;;4941162;28;45326;-71
2022/04/26 05:35:10;;;;;;;2.85;1.13;;;19.40;47.50;;;;;;4922038;28;45294;-69
2022/04/26 05:37:36;;;;;;;0.75;0.75;;;19.40;47.50;;;;;;4914579;28;45031;-70
2022/04/26 05:40:02;;;;;;;0.70;0.70;;;19.40;47.50;;;;;;4944462;28;45580;-70
2022/04/26 05:42:31;;;;;;;0.80;0.80;;;19.40;47.50;;;;;;4900147;28;46165;-70
2022/04/26 05:44:57;;;;;;;1.00;0.90;;;19.40;47.50;;;;;;4908049;28;45005;-70
2022/04/26 05:47:22;;;;;;;1.23;1.10;;;19.40;47.60;;;;;;4944849;28;45461;-70
2022/04/26 05:49:48;;;;;;;1.20;1.10;;;19.40;47.50;;;;;;4927368;28;45438;-70
2022/04/26 05:52:14;;;;;;;0.77;0.70;;;19.40;47.50;;;;;;4901811;28;45235;-70
2022/04/26 05:54:40;;;;;;;1.00;0.90;;;19.40;47.50;;;;;;4906265;28;45300;-70
2022/04/26 05:57:05;;;;;;;1.20;1.10;;;19.40;47.50;;;;;;4956939;28;45540;-69
2022/04/26 05:59:31;;;;;;;1.15;1.00;;;19.30;47.50;;;;;;4933774;28;45436;-70
2022/04/26 06:01:57;;;;;;;1.20;1.10;;;19.30;47.50;;;;;;4943622;28;45211;-70
2022/04/26 06:04:24;;;;;;;0.88;0.82;;;19.30;47.50;;;;;;4898876;28;44712;-70
2022/04/26 06:06:50;;;;;;;1.08;0.98;;;19.30;47.50;;;;;;4901717;28;45573;-70
2022/04/26 06:09:16;;;;;;;0.85;0.85;;;19.30;47.50;;;;;;4929320;28;46618;-70
2022/04/26 06:11:42;;;;;;;0.88;0.88;;;19.40;47.50;;;;;;4914851;28;45229;-70
2022/04/26 06:14:08;;;;;;;1.10;0.95;;;19.30;47.50;;;;;;4932636;28;46618;-69
2022/04/26 06:16:33;;;;;;;1.05;0.98;;;19.30;47.50;;;;;;4931275;28;45552;-70
2022/04/26 06:18:59;;;;;;;;;;;19.30;47.50;;;;;;4936369;28;45318;-71
2022/04/26 06:21:24;;;;;;;0.90;0.90;;;19.30;47.50;;;;;;4916300;28;45570;-70
2022/04/26 06:23:50;;;;;;;1.05;0.98;;;19.30;47.40;;;;;;4947900;28;44811;-70
2022/04/26 06:26:15;;;;;;;1.33;1.00;;;19.40;47.40;;;;;;4927594;28;44910;-70
2022/04/26 06:28:41;;;;;;;1.00;0.95;;;19.40;47.30;;;;;;4911505;28;45252;-71
2022/04/26 06:31:07;;;;;;;0.80;0.80;;;19.50;47.20;;;;;;4952471;28;45253;-70
2022/04/26 06:33:35;;;;;;;0.98;0.90;;;19.60;47.20;;;;;;4934101;28;45385;-70
2022/04/26 06:36:01;;;;;;;0.90;0.90;;;19.70;47.00;;;;;;4953958;28;45397;-69
2022/04/26 06:38:26;;;;;;;1.08;0.98;;;19.80;46.90;;;;;;4913955;28;45885;-69
2022/04/26 06:40:52;;;;;;;1.23;1.13;;;19.90;46.80;;;;;;4906771;28;45919;-68
2022/04/26 06:43:19;;;;;;;1.45;0.90;;;20.00;46.70;;;;;;4934032;28;45302;-68
2022/04/26 06:45:46;;;;;;;1.00;0.90;;;20.10;46.50;;;;;;4901625;28;45394;-68
2022/04/26 06:48:11;;;;;;;1.05;0.90;;;20.20;46.40;;;;;;4937750;28;45575;-68
2022/04/26 06:50:37;;;;;;;0.95;0.95;;;20.30;46.20;;;;;;4938101;28;45478;-70
2022/04/26 06:53:04;;;;;;;1.10;1.00;;;20.50;46.20;;;;;;4921945;28;44893;-69
2022/04/26 06:55:29;;;;;;;0.80;0.80;;;20.50;46.00;;;;;;4931073;28;45241;-69
2022/04/26 06:57:55;;;;;;;0.90;0.90;;;20.70;45.90;;;;;;4934521;28;45316;-70
2022/04/26 07:00:21;;;;;;;1.58;1.00;;;20.70;45.80;;;;;;4913903;28;45085;-68
2022/04/26 07:02:46;;;;;;;0.77;0.77;;;20.80;45.70;;;;;;4933287;28;45502;-69
2022/04/26 07:05:12;;;;;;;0.88;0.88;;;20.90;45.60;;;;;;4936077;28;45005;-73
2022/04/26 07:07:38;;;;;;;0.80;0.80;;;21.10;45.60;;;;;;4920044;28;45508;-72
2022/04/26 07:10:05;;;;;;;0.65;0.65;;;21.10;45.60;;;;;;4931481;28;44969;-72
2022/04/26 07:12:31;;;;;;;2.63;0.80;;;21.20;45.40;;;;;;4918809;28;45426;-69
2022/04/26 07:14:57;;;;;;;0.70;0.70;;;21.30;45.40;;;;;;4947645;28;45209;-71
2022/04/26 07:17:23;;;;;;;0.80;0.80;;;21.40;45.30;;;;;;4917930;28;46821;-68
2022/04/26 07:19:49;;;;;;;0.65;0.63;;;21.50;45.20;;;;;;4933683;28;45166;-70
2022/04/26 07:22:14;;;;;;;0.70;0.70;;;21.60;45.10;;;;;;4917947;28;45050;-70
2022/04/26 07:24:40;;;;;;;0.75;0.75;;;21.70;45.00;;;;;;4930300;28;45067;-69
2022/04/26 07:27:06;;;;;;;0.80;0.80;;;21.70;45.00;;;;;;4932532;28;46834;-70
2022/04/26 07:29:31;;;;;;;0.68;0.60;;;21.80;44.90;;;;;;4918656;28;45259;-70
2022/04/26 07:31:57;;;;;;;1.00;0.70;;;21.90;44.80;;;;;;4912616;28;45146;-69
2022/04/26 07:34:24;;;;;;;0.80;0.80;;;22.00;44.70;;;;;;4935557;28;44916;-70
2022/04/26 07:36:50;;;;;;;0.57;0.57;;;22.10;44.70;;;;;;4899931;28;47654;-69
2022/04/26 07:39:17;;;;;;;0.93;0.88;;;22.20;44.70;;;;;;4918264;28;45157;-69
2022/04/26 07:41:49;;;;;;;0.70;0.70;;;22.30;44.60;;;;;;4946287;28;44893;-69
2022/04/26 07:44:15;;;;;;;0.50;0.50;;;22.40;44.50;;;;;;4904761;28;45487;-68
2022/04/26 07:46:45;;;;;;;0.50;0.50;;;22.40;44.40;;;;;;4912729;28;45784;-68
2022/04/26 07:49:11;;;;;;;0.60;0.60;;;22.50;44.30;;;;;;4934443;28;45486;-68
2022/04/26 07:51:37;;;;;;;0.70;0.70;;;22.60;44.30;;;;;;4932313;28;45317;-68
2022/04/26 07:54:02;;;;;;;0.60;0.60;;;22.70;44.20;;;;;;4914084;28;45542;-70
2022/04/26 07:56:28;;;;;;;0.50;0.50;;;22.80;44.10;;;;;;4930742;28;45388;-70
2022/04/26 07:58:54;;;;;;;0.80;0.80;;;22.80;44.00;;;;;;4946643;28;45298;-72
2022/04/26 08:01:20;;;;;;;0.70;0.63;;;22.90;44.00;;;;;;4916287;28;45482;-69
2022/04/26 08:03:46;;;;;;;0.63;0.63;;;23.00;44.00;;;;;;4925050;28;45463;-69
2022/04/26 08:06:12;;;;;;;0.60;0.60;;;23.00;43.90;;;;;;4943507;28;46861;-68
2022/04/26 08:08:39;;;;;;;0.68;0.50;;;23.10;43.90;;;;;;4914338;28;45136;-68
2022/04/26 08:11:05;;;;;;;0.52;0.52;;;23.10;43.80;;;;;;4917293;28;46010;-70
2022/04/26 08:13:30;;;;;;;0.65;0.60;;;23.20;43.80;;;;;;4900739;28;45492;-70
2022/04/26 08:15:56;;;;;;;0.60;0.60;;;23.30;43.70;;;;;;4918304;28;45484;-70
2022/04/26 08:18:22;;;;;;;0.70;0.70;;;23.30;43.70;;;;;;4948044;28;45117;-72
2022/04/26 08:20:48;;;;;;;0.80;0.50;;;23.40;43.60;;;;;;4934324;28;45099;-70
2022/04/26 08:23:13;;;;;;;0.60;0.60;;;23.40;43.60;;;;;;4950756;28;44670;-70
2022/04/26 08:28:25;;;;;;;0.60;0.60;;;23.50;43.60;;;;;;4943995;28;44797;-70
2022/04/26 08:30:51;;;;;;;0.68;0.40;;;23.50;43.50;;;;;;4915188;28;45023;-69
2022/04/26 08:33:17;;;;;;;0.55;0.47;;;23.60;43.50;;;;;;4929717;28;44996;-69
2022/04/26 08:35:43;;;;;;;0.65;0.60;;;23.60;43.50;;;;;;4942172;28;45490;-69
2022/04/26 08:38:08;;;;;;;0.80;0.70;;;23.70;43.40;;;;;;4902580;28;45165;-70
2022/04/26 08:40:35;;;;;;;0.43;0.43;;;23.70;43.40;;;;;;4928467;28;45516;-70
2022/04/26 08:43:02;;;;;;;0.60;0.60;;;23.80;43.40;;;;;;4908122;28;44980;-70
2022/04/26 08:45:27;;;;;;;0.50;0.50;;;23.80;43.30;;;;;;4912951;28;45420;-69
2022/04/26 08:53:23;;;;;;;0.70;0.60;;;23.90;43.20;;;;;;4931501;28;45387;-69
2022/04/26 08:55:53;;;;;;;0.60;0.60;;;23.90;43.20;;;;;;4917015;28;45200;-70
2022/04/26 08:58:19;;;;;;;2.42;0.63;;;24.00;43.10;;;;;;4927690;28;44800;-69
2022/04/26 09:01:09;;;;;;;0.60;0.60;;;24.00;43.10;;;;;;4915137;28;45526;-69
2022/04/26 09:04:02;;;;;;;0.60;0.57;;;24.10;42.90;;;;;;4943189;28;45668;-69
2022/04/26 09:06:43;;;;;;;0.40;0.40;;;24.10;42.80;;;;;;4948160;28;46543;-69
2022/04/26 09:09:13;;;;;;;0.82;0.60;;;24.10;42.90;;;;;;4915938;28;45429;-69
2022/04/26 09:11:39;;;;;;;0.60;0.50;;;24.20;43.00;;;;;;4927628;28;44934;-69
2022/04/26 09:14:11;;;;;;;1.00;0.70;;;24.20;43.00;;;;;;4933987;28;44921;-70
2022/04/26 09:16:37;;;;;;;0.50;0.50;;;24.20;43.00;;;;;;4941611;28;46750;-69
2022/04/26 09:19:07;;;;;;;0.50;0.50;;;24.30;43.00;;;;;;4933796;28;45207;-69
2022/04/26 09:21:34;;;;;;;0.68;0.60;;;24.30;43.00;;;;;;4926009;28;46009;-69
2022/04/26 09:24:04;;;;;;;0.70;0.60;;;24.30;42.90;;;;;;4934172;28;45926;-70
2022/04/26 09:26:39;;;;;;;0.52;0.50;;;24.40;42.90;;;;;;4945875;28;45563;-72
2022/04/26 09:29:05;;;;;;;0.50;0.50;;;24.40;42.80;;;;;;4929894;28;45480;-69
2022/04/26 09:31:35;;;;;;;0.55;0.55;;;24.40;42.90;;;;;;4942556;28;44910;-72
2022/04/26 09:34:05;;;;;;;0.50;0.50;;;24.40;42.70;;;;;;4913200;28;44957;-70
2022/04/26 09:36:35;;;;;;;0.50;0.50;;;24.40;42.80;;;;;;4898999;28;46983;-71
2022/04/26 09:39:02;;;;;;;0.60;0.60;;;24.50;42.80;;;;;;4949654;28;45600;-70
2022/04/26 09:41:28;;;;;;;0.70;0.60;;;24.50;42.80;;;;;;4905612;28;44963;-70
2022/04/26 09:43:57;;;;;;;0.60;0.60;;;24.50;42.70;;;;;;4917802;28;45429;-68
2022/04/26 09:46:24;;;;;;;0.40;0.40;;;24.60;42.60;;;;;;4949726;28;45177;-69
2022/04/26 09:48:51;;;;;;;0.60;0.50;;;24.60;42.70;;;;;;4932119;28;45455;-70
2022/04/26 09:51:17;;;;;;;0.70;0.70;;;24.60;42.60;;;;;;4919500;28;45185;-70
2022/04/26 09:53:43;;;;;;;0.88;0.60;;;24.60;42.50;;;;;;4933910;28;44745;-70
2022/04/26 09:56:08;;;;;;;0.40;0.40;;;24.60;42.60;;;;;;4931626;28;45314;-70
2022/04/26 09:58:37;;;;;;;0.80;0.60;;;24.70;42.60;;;;;;4935466;28;45236;-69
2022/04/26 10:01:04;;;;;;;0.40;0.40;;;24.70;42.60;;;;;;4932745;28;45555;-70
2022/04/26 10:03:39;;;;;;;0.50;0.50;;;24.70;42.60;;;;;;4919602;28;45159;-71
2022/04/26 10:06:06;;;;;;;1.48;0.52;;;24.70;42.40;;;;;;4912061;28;45612;-72
2022/04/26 10:08:36;;;;;;;0.50;0.50;;;24.70;42.50;;;;;;4935828;28;44691;-71
2022/04/26 10:11:02;;;;;;;1.17;0.65;;;24.70;42.50;;;;;;4932409;28;45514;-70
2022/04/26 10:13:32;;;;;;;0.63;0.60;;;24.80;42.50;;;;;;4950180;28;45322;-70
2022/04/26 10:16:07;;;;;;;0.40;0.40;;;24.80;42.40;;;;;;4919465;28;45402;-68
2022/04/26 10:18:43;;;;;;;0.40;0.40;;;24.80;42.40;;;;;;4949600;28;45865;-70
2022/04/26 10:21:10;;;;;;;0.63;0.50;;;24.80;42.50;;;;;;4935451;28;45558;-70
2022/04/26 10:23:51;;;;;;;0.60;0.60;;;24.80;42.50;;;;;;4916724;28;45502;-70
2022/04/26 10:26:23;;;;;;;0.57;0.57;;;24.80;42.20;;;;;;4912470;28;47100;-69
2022/04/26 10:29:02;;;;;;;0.65;0.50;;;24.80;42.50;;;;;;4934433;28;45181;-69
2022/04/26 10:31:37;;;;;;;0.60;0.60;;;24.80;42.20;;;;;;4916672;28;44770;-68
2022/04/26 10:34:26;;;;;;;0.45;0.40;;;24.90;42.30;;;;;;4916092;28;45412;-69
2022/04/26 10:37:06;;;;;;;2.50;0.50;;;24.80;42.20;;;;;;4952089;28;46595;-69
2022/04/26 10:40:08;;;;;;;0.55;0.50;;;24.80;42.20;;;;;;4936047;28;46206;-69
2022/04/26 10:42:35;;;;;;;0.68;0.68;;;24.90;42.00;;;;;;4877790;29;45578;-69
2022/04/26 10:45:10;;;;;;;0.40;0.40;;;24.80;42.40;;;;;;4927821;28;45279;-69
2022/04/26 10:47:36;;;;;;;0.60;0.60;;;24.90;42.20;;;;;;4955785;28;45452;-67
2022/04/26 10:50:03;;;;;;;0.65;0.50;;;24.80;42.30;;;;;;4940500;28;45279;-69
2022/04/26 10:52:33;;;;;;;1.27;0.60;;;24.90;42.40;;;;;;4909276;28;45546;-69
2022/04/26 10:55:07;;;;;;;0.50;0.50;;;24.90;42.40;;;;;;4939476;28;45100;-69
2022/04/26 10:57:37;;;;;;;0.50;0.50;;;24.90;42.30;;;;;;4956867;28;45547;-70
2022/04/26 11:00:16;;;;;;;0.50;0.50;;;24.90;42.40;;;;;;4910749;28;45436;-71
2022/04/26 11:02:47;;;;;;;0.52;0.50;;;24.90;42.20;;;;;;4935238;28;45304;-69
2022/04/26 11:05:17;;;;;;;0.47;0.47;;;24.90;42.30;;;;;;4938466;28;44878;-72
2022/04/26 11:07:45;;;;;;;0.60;0.50;;;24.90;42.30;;;;;;4953017;28;45699;-71
2022/04/26 11:10:11;;;;;;;0.40;0.40;;;24.90;42.30;;;;;;4903662;28;45145;-69
2022/04/26 11:12:38;;;;;;;0.40;0.40;;;25.00;42.30;;;;;;4898145;28;45108;-71
2022/04/26 11:15:07;;;;;;;0.82;0.50;;;24.90;42.30;;;;;;4938374;28;45276;-73
2022/04/26 11:17:34;;;;;;;0.40;0.40;;;25.00;42.30;;;;;;4922726;28;46607;-70
2022/04/26 11:20:20;;;;;;;1.38;0.60;;;25.00;42.30;;;;;;4924022;28;44674;-72
2022/04/26 11:22:55;;;;;;;0.50;0.50;;;25.00;41.90;;;;;;4938169;28;45365;-69
2022/04/26 11:28:10;;;;;;;0.75;0.60;;;25.00;42.30;;;;;;4937327;28;46432;-70
2022/04/26 11:30:45;;;;;;;0.30;0.30;;;25.10;42.30;;;;;;4953890;28;45224;-68
2022/04/26 11:33:18;;;;;;;0.50;0.50;;;25.00;42.20;;;;;;4923446;28;45165;-69
2022/04/26 11:35:44;;;;;;;;;;;25.00;42.20;;;;;;4939549;28;45364;-71
2022/04/26 11:38:10;;;;;;;0.47;0.40;;;25.00;41.80;;;;;;4936799;28;46693;-68
2022/04/26 11:40:41;;;;;;;1.00;0.52;;;25.10;42.20;;;;;;4935005;28;45021;-68
2022/04/26 11:43:09;;;;;;;1.40;0.60;;;25.10;42.20;;;;;;4929946;28;45593;-68
2022/04/26 11:45:35;;;;;;;0.47;0.47;;;25.10;42.10;;;;;;4948588;28;45649;-68
2022/04/26 11:48:01;;;;;;;0.73;0.50;;;25.10;42.10;;;;;;4917953;28;46657;-68
2022/04/26 11:50:28;;;;;;;0.68;0.50;;;25.10;42.20;;;;;;4934296;28;45613;-69
2022/04/26 11:53:08;;;;;;;0.82;0.35;;;25.10;42.20;;;;;;4913929;28;45620;-68
2022/04/26 11:55:41;;;;;;;0.45;0.43;;;25.10;42.10;;;;;;4932054;28;45264;-66
2022/04/26 11:58:13;;;;;;;0.40;0.40;;;25.10;42.40;;;;;;4950279;28;45278;-68
2022/04/26 12:01:12;;;;;;;0.50;0.50;;;25.10;42.10;;;;;;4949052;28;45772;-70
2022/04/26 12:03:49;;;;;;;0.50;0.50;;;25.20;42.00;;;;;;4892485;28;44899;-69
2022/04/26 12:06:19;;;;;;;0.82;0.60;;;25.20;42.10;;;;;;4932678;28;45394;-69
2022/04/26 12:08:55;;;;;;;0.60;0.60;;;25.20;42.10;;;;;;4936605;28;46566;-70
2022/04/26 12:11:21;;;;;;;0.40;0.40;;;25.20;42.10;;;;;;4916617;28;45334;-71
2022/04/26 12:14:14;;;;;;;0.40;0.40;;;25.20;42.20;;;;;;4932836;28;45568;-70
2022/04/26 12:16:47;;;;;;;0.50;0.50;;;25.20;42.00;;;;;;4902774;28;45761;-69
2022/04/26 12:19:12;;;;;;;;;;;25.20;42.20;;;;;;4940265;28;47244;-70
2022/04/26 12:21:46;;;;;;;0.73;0.47;;;25.20;42.00;;;;;;4933188;28;45344;-72
2022/04/26 12:24:15;;;;;;;0.40;0.40;;;25.20;42.20;;;;;;4953001;28;45698;-69
2022/04/26 12:26:57;;;;;;;0.50;0.50;;;25.30;42.20;;;;;;4953311;28;45330;-68
2022/04/26 12:29:24;;;;;;;0.60;0.50;;;25.30;42.10;;;;;;4937198;28;45846;-68
2022/04/26 12:31:49;;;;;;;0.95;0.50;;;25.20;42.70;;;;;;4934088;28;45487;-67
2022/04/26 12:34:29;;;;;;;0.63;0.55;;;25.30;42.30;;;;;;4917694;28;45154;-70
2022/04/26 12:36:57;;;;;;;0.60;0.50;;;25.30;42.10;;;;;;4915702;28;45277;-68
2022/04/26 12:39:24;;;;;;;0.40;0.40;;;25.30;42.30;;;;;;4932884;28;45406;-66
2022/04/26 12:41:52;;;;;;;0.55;0.47;;;25.30;42.30;;;;;;4953057;28;45341;-67
2022/04/26 12:44:18;;;;;;;0.63;0.52;;;25.30;42.20;;;;;;4919995;28;45453;-66
2022/04/26 12:50:27;;;;;;;0.50;0.50;;;25.30;42.20;;;;;;4933564;28;45223;-67
2022/04/26 12:52:34;;;;;;;1.30;0.68;;;25.30;42.20;;;;;;4938916;28;44777;-67
2022/04/26 12:54:59;;;;;;;2.40;0.50;;;25.30;42.10;;;;;;4938075;28;44769;-67
2022/04/26 12:57:25;;;;;;;0.68;0.60;;;25.30;42.20;;;;;;4911809;28;45013;-67
2022/04/26 12:59:51;;;;;;;0.52;0.52;;;25.30;42.30;;;;;;4916222;28;46982;-68
2022/04/26 13:02:16;;;;;;;0.60;0.60;;;25.30;42.20;;;;;;4934277;28;45515;-67
2022/04/26 13:04:42;;;;;;;0.40;0.30;;;25.30;42.20;;;;;;4919704;28;45430;-66
2022/04/26 13:07:08;;;;;;;0.52;0.47;;;25.40;42.30;;;;;;4937410;28;45442;-68
2022/04/26 13:09:34;;;;;;;0.68;0.65;;;25.30;42.20;;;;;;4912559;28;45889;-69
2022/04/26 13:11:59;;;;;;;0.45;0.32;;;25.40;42.30;;;;;;4950198;28;44764;-67
2022/04/26 13:14:26;;;;;;;0.65;0.57;;;25.40;42.30;;;;;;4952348;28;45907;-68
2022/04/26 13:16:52;;;;;;;1.70;0.50;;;25.40;42.30;;;;;;4954237;28;45487;-69
2022/04/26 13:19:18;;;;;;;1.23;0.50;;;25.40;42.30;;;;;;4897686;28;45979;-68
2022/04/26 13:21:43;;;;;;;0.88;0.63;;;25.40;42.30;;;;;;4936530;28;45304;-68
2022/04/26 13:24:10;;;;;;;0.50;0.50;;;25.30;42.30;;;;;;4934056;28;45481;-67
2022/04/26 13:26:36;;;;;;;0.43;0.40;;;25.40;42.40;;;;;;4887693;28;45582;-69
2022/04/26 13:29:03;;;;;;;0.60;0.55;;;25.40;42.40;;;;;;4916768;28;45444;-65
2022/04/26 13:31:29;;;;;;;0.60;0.47;;;25.40;42.30;;;;;;4932976;28;45938;-67
2022/04/26 13:33:56;;;;;;;0.60;0.60;;;25.40;42.40;;;;;;4918620;28;45413;-68
2022/04/26 13:36:22;;;;;;;0.40;0.40;;;25.40;42.40;;;;;;4914112;28;45504;-67
2022/04/26 13:38:47;;;;;;;0.60;0.60;;;25.40;42.40;;;;;;4952404;28;45641;-70
2022/04/26 13:41:13;;;;;;;0.82;0.55;;;25.40;42.40;;;;;;4933250;28;45215;-68
2022/04/26 13:43:41;;;;;;;0.68;0.50;;;25.40;42.40;;;;;;4918180;28;45317;-67
2022/04/26 13:46:07;;;;;;;0.65;0.32;;;25.40;42.50;;;;;;4916833;28;44736;-67
2022/04/26 13:48:33;;;;;;;0.30;0.30;;;25.40;42.40;;;;;;4936679;28;45221;-67
2022/04/26 13:50:58;;;;;;;0.55;0.55;;;25.40;42.40;;;;;;4931208;28;45857;-68
2022/04/26 13:53:24;;;;;;;0.80;0.77;;;25.40;42.40;;;;;;4934075;28;45352;-71
2022/04/26 13:55:49;;;;;;;0.57;0.43;;;25.40;42.40;;;;;;4930360;28;45309;-67
2022/04/26 13:58:15;;;;;;;0.38;0.38;;;25.40;42.50;;;;;;4949517;28;46006;-69
2022/04/26 14:00:41;;;;;;;1.17;0.47;;;25.40;42.50;;;;;;4931769;28;44676;-67
2022/04/26 14:03:07;;;;;;;1.15;0.50;;;25.40;42.50;;;;;;4917344;28;45178;-67
2022/04/26 14:05:34;;;;;;;0.40;0.40;;;25.40;42.50;;;;;;4916839;28;45827;-65
2022/04/26 14:08:00;;;;;;;0.65;0.40;;;25.40;42.40;;;;;;4948472;28;45201;-66
2022/04/26 14:10:26;;;;;;;0.50;0.50;;;25.40;42.40;;;;;;4948645;28;45985;-67
2022/04/26 14:12:52;;;;;;;0.40;0.40;;;25.50;42.50;;;;;;4935376;28;45232;-70
2022/04/26 14:23:30;;;;;;;0.50;0.50;;;25.40;42.40;;;;;;4939763;28;45587;-70
2022/04/26 14:25:56;;;;;;;0.63;0.50;;;25.40;42.40;;;;;;4935788;28;45606;-69
2022/04/26 14:28:22;;;;;;;0.40;0.40;;;25.50;42.50;;;;;;4935075;28;45372;-69
2022/04/26 14:30:47;;;;;;;0.57;0.50;;;25.50;42.50;;;;;;4918455;28;45077;-70
2022/04/26 14:33:13;;;;;;;0.52;0.50;;;25.50;42.50;;;;;;4932065;28;46680;-69
2022/04/26 14:35:39;;;;;;;0.47;0.47;;;25.50;42.50;;;;;;4952850;28;45742;-71
2022/04/26 14:38:05;;;;;;;0.47;0.45;;;25.40;42.50;;;;;;4934157;28;45374;-70
2022/04/26 14:40:31;;;;;;;0.50;0.50;;;25.50;42.50;;;;;;4950786;28;45095;-69
2022/04/26 14:42:57;;;;;;;0.55;0.50;;;25.50;42.40;;;;;;4920969;28;45578;-70
2022/04/26 14:45:23;;;;;;;0.40;0.40;;;25.50;42.50;;;;;;4935037;28;45024;-69
2022/04/26 14:47:49;;;;;;;0.50;0.50;;;25.50;42.50;;;;;;4932978;28;45342;-69
2022/04/26 14:50:17;;;;;;;0.45;0.45;;;25.50;42.50;;;;;;4919791;28;45221;-70
2022/04/26 14:52:43;;;;;;;0.47;0.47;;;25.50;42.50;;;;;;4922919;28;45312;-70
2022/04/26 14:55:10;;;;;;;0.40;0.40;;;25.50;42.50;;;;;;4953526;28;45523;-69
2022/04/26 14:57:36;;;;;;;0.47;0.47;;;25.50;42.50;;;;;;4920398;28;45836;-69
2022/04/26 15:00:05;;;;;;;0.80;0.80;;;25.50;42.40;;;;;;4933349;28;45224;-69
2022/04/26 15:02:38;;;;;;;0.68;0.50;;;25.50;42.50;;;;;;4934962;28;45608;-67
2022/04/26 15:05:08;;;;;;;0.40;0.40;;;25.50;42.50;;;;;;4921087;28;45867;-70
2022/04/26 15:09:42;;;;;;;0.50;0.50;;;25.50;42.50;;;;;;4934109;28;45360;-69
2022/04/26 15:10:19;;;;;;;0.60;0.60;;;25.50;42.50;;;;;;4937619;28;45153;-69
2022/04/26 15:18:14;;;;;;;0.50;0.50;;;25.60;42.60;;;;;;4932596;28;47461;-69
2022/04/26 15:20:45;;;;;;;0.40;0.40;;;25.50;42.60;;;;;;4933231;28;45525;-69
2022/04/26 15:23:11;;;;;;;0.70;0.50;;;25.50;42.50;;;;;;4934126;28;45835;-69
2022/04/26 15:25:36;;;;;;;2.63;0.60;;;25.60;42.60;;;;;;4919149;28;44837;-71
2022/04/26 15:28:02;;;;;;;0.50;0.50;;;25.50;42.60;;;;;;4935273;28;45606;-70
2022/04/26 15:30:28;;;;;;;0.40;0.40;;;25.50;42.60;;;;;;4918327;28;45733;-69
2022/04/26 15:32:54;;;;;;;0.40;0.40;;;25.60;42.60;;;;;;4952305;28;45225;-69
2022/04/26 15:35:20;;;;;;;0.60;0.60;;;25.60;42.60;;;;;;4933383;28;45304;-69
2022/04/26 15:37:45;;;;;;;0.50;0.50;;;25.50;42.60;;;;;;4918218;28;46274;-69
2022/04/26 15:40:11;;;;;;;0.47;0.45;;;25.50;42.60;;;;;;4921395;28;45499;-69
2022/04/26 15:42:38;;;;;;;0.50;0.40;;;25.60;42.70;;;;;;4916302;28;45048;-68
2022/04/26 15:45:04;;;;;;;0.35;0.35;;;25.60;42.70;;;;;;4919957;28;44714;-68
2022/04/26 15:47:29;;;;;;;0.50;0.40;;;25.50;42.70;;;;;;4920807;28;45657;-68
2022/04/26 15:49:55;;;;;;;0.40;0.40;;;25.60;42.70;;;;;;4935789;28;45359;-69
2022/04/26 15:52:22;;;;;;;0.73;0.65;;;25.60;42.70;;;;;;4949463;28;45175;-69
2022/04/26 15:54:47;;;;;;;0.50;0.50;;;25.60;42.80;;;;;;4933495;28;45514;-69
2022/04/26 15:57:13;;;;;;;0.38;0.38;;;25.60;42.80;;;;;;4951147;28;46045;-69
2022/04/26 15:59:39;;;;;;;0.50;0.50;;;25.50;42.70;;;;;;4917276;28;45987;-69
2022/04/26 16:02:07;;;;;;;0.40;0.40;;;25.60;42.70;;;;;;4911637;28;45455;-69
2022/04/26 16:04:33;;;;;;;0.60;0.60;;;25.60;42.80;;;;;;4936017;28;45441;-69
2022/04/26 16:06:59;;;;;;;0.30;0.30;;;25.60;42.80;;;;;;4931988;28;46762;-70
2022/04/26 16:20:31;;;;;;;0.60;0.50;;;25.60;42.90;;;;;;4936347;28;45600;-70
2022/04/26 16:23:02;;;;;;;0.47;0.47;;;25.50;42.90;;;;;;4913889;28;45158;-69
2022/04/26 16:25:28;;;;;;;0.95;0.60;;;25.60;43.00;;;;;;4935664;28;45228;-71
2022/04/26 16:27:53;;;;;;;0.52;0.47;;;25.60;42.90;;;;;;4929964;28;46365;-70
2022/04/26 16:30:19;;;;;;;0.50;0.50;;;25.60;43.00;;;;;;4913341;28;45201;-71
2022/04/26 16:32:45;;;;;;;0.43;0.43;;;25.60;43.00;;;;;;4902553;28;45101;-70
2022/04/26 16:35:11;;;;;;;0.63;0.50;;;25.60;43.00;;;;;;4947640;28;45347;-69
2022/04/26 16:37:38;;;;;;;0.50;0.40;;;25.60;42.90;;;;;;4930337;28;45572;-70
2022/04/26 16:40:04;;;;;;;0.40;0.40;;;25.60;43.00;;;;;;4901221;28;45414;-71
2022/04/26 16:42:30;;;;;;;2.40;0.50;;;25.60;43.00;;;;;;4946203;28;44837;-71
2022/04/26 16:44:56;;;;;;;0.40;0.40;;;25.60;43.00;;;;;;4902989;28;45239;-70
2022/04/26 16:47:22;;;;;;;0.60;0.50;;;25.60;43.00;;;;;;4916917;28;46680;-70
2022/04/26 16:49:47;;;;;;;0.50;0.50;;;25.60;43.00;;;;;;4931420;28;45506;-68
2022/04/26 16:52:13;;;;;;;0.43;0.43;;;25.60;43.00;;;;;;4949682;28;46792;-69
2022/04/26 16:54:39;;;;;;;0.60;0.60;;;25.60;43.00;;;;;;4916157;28;45864;-68
2022/04/26 16:57:05;;;;;;;0.73;0.65;;;25.60;43.10;;;;;;4927370;28;46785;-69
2022/04/26 16:59:30;;;;;;;0.90;0.50;;;25.60;43.10;;;;;;4950853;28;46109;-68
2022/04/26 17:01:56;;;;;;;0.60;0.50;;;25.50;43.20;;;;;;4933709;28;45502;-73
2022/04/26 17:04:24;;;;;;;0.43;0.43;;;25.50;43.20;;;;;;4910616;28;45183;-69
2022/04/26 17:06:50;;;;;;;0.70;0.50;;;25.40;43.30;;;;;;4908849;28;45372;-68
2022/04/26 17:09:16;;;;;;;0.52;0.52;;;25.40;43.30;;;;;;4918424;28;45425;-68